createdAt,value
2018-01-10T00:01:09.256Z,7.70
2018-01-10T00:03:36.823Z,7.70
2018-01-10T00:06:04.361Z,7.60
2018-01-10T00:08:32.695Z,7.60
2018-01-10T00:11:00.225Z,7.60
2018-01-10T00:13:27.806Z,7.60
2018-01-10T00:15:55.336Z,7.60
2018-01-10T00:18:23.024Z,7.50
2018-01-10T00:20:50.556Z,7.50
2018-01-10T00:23:18.897Z,7.40
2018-01-10T00:25:47.933Z,7.40
2018-01-10T00:28:15.512Z,7.40
2018-01-10T00:30:43.046Z,7.40
2018-01-10T00:33:11.386Z,7.40
2018-01-10T00:35:38.921Z,7.30
2018-01-10T00:38:06.501Z,7.30
2018-01-10T00:40:34.039Z,7.30
2018-01-10T00:43:01.625Z,7.30
2018-01-10T00:45:29.160Z,7.30
2018-01-10T00:47:56.736Z,7.20
2018-01-10T00:50:24.271Z,7.20
2018-01-10T00:52:51.809Z,7.10
2018-01-10T00:55:19.373Z,7.10
2018-01-10T00:57:46.959Z,7.10
2018-01-10T01:00:14.490Z,7.10
2018-01-10T01:02:42.032Z,7.10
2018-01-10T01:05:10.377Z,7.00
2018-01-10T01:07:37.911Z,7.00
2018-01-10T01:10:05.495Z,7.00
2018-01-10T01:12:33.038Z,7.00
2018-01-10T01:15:00.600Z,7.00
2018-01-10T01:17:28.180Z,6.90
2018-01-10T01:19:55.750Z,6.90
2018-01-10T01:22:23.289Z,6.90
2018-01-10T01:24:50.859Z,6.80
2018-01-10T01:27:18.399Z,6.90
2018-01-10T01:29:45.978Z,6.80
2018-01-10T01:32:13.554Z,6.80
2018-01-10T01:34:41.861Z,6.70
2018-01-10T01:37:09.431Z,6.70
2018-01-10T01:39:36.968Z,6.70
2018-01-10T01:42:05.319Z,6.60
2018-01-10T01:44:33.648Z,6.60
2018-01-10T01:47:01.236Z,6.60
2018-01-10T01:49:28.777Z,6.60
2018-01-10T01:51:56.356Z,6.60
2018-01-10T01:54:23.898Z,6.50
2018-01-10T01:56:51.493Z,6.50
2018-01-10T01:59:19.033Z,6.50
2018-01-10T02:01:46.574Z,6.50
2018-01-10T02:04:14.149Z,6.50
2018-01-10T02:06:41.687Z,6.50
2018-01-10T02:09:09.265Z,6.40
2018-01-10T02:11:36.794Z,6.40
2018-01-10T02:14:04.376Z,6.40
2018-01-10T02:16:31.912Z,6.40
2018-01-10T02:18:59.489Z,6.30
2018-01-10T02:21:27.023Z,6.30
2018-01-10T02:23:55.367Z,6.20
2018-01-10T02:26:22.894Z,6.20
2018-01-10T02:28:50.468Z,6.20
2018-01-10T02:31:18.004Z,6.20
2018-01-10T02:33:45.578Z,6.20
2018-01-10T02:36:13.149Z,6.20
2018-01-10T02:38:40.725Z,6.20
2018-01-10T02:41:08.308Z,6.10
2018-01-10T02:43:36.601Z,6.10
2018-01-10T02:46:04.168Z,6.10
2018-01-10T02:48:31.708Z,6.10
2018-01-10T02:51:00.055Z,6.00
2018-01-10T02:53:27.597Z,6.00
2018-01-10T02:55:55.172Z,6.00
2018-01-10T02:58:22.704Z,6.00
2018-01-10T03:00:50.326Z,5.90
2018-01-10T03:03:18.619Z,5.90
2018-01-10T03:05:46.153Z,5.90
2018-01-10T03:08:14.583Z,5.90
2018-01-10T03:10:42.122Z,5.90
2018-01-10T03:13:09.696Z,5.90
2018-01-10T03:15:37.235Z,5.80
2018-01-10T03:18:04.813Z,5.80
2018-01-10T03:20:32.394Z,5.80
2018-01-10T03:22:59.927Z,5.80
2018-01-10T03:25:27.500Z,5.80
2018-01-10T03:27:55.041Z,5.70
2018-01-10T03:30:22.607Z,5.70
2018-01-10T03:32:50.140Z,5.70
2018-01-10T03:35:18.479Z,5.70
2018-01-10T03:37:46.018Z,5.60
2018-01-10T03:40:13.599Z,5.60
2018-01-10T03:42:41.136Z,5.60
2018-01-10T03:45:08.716Z,5.60
2018-01-10T03:47:36.268Z,5.60
2018-01-10T03:50:03.914Z,5.60
2018-01-10T03:52:31.451Z,5.60
2018-01-10T03:54:59.036Z,5.50
2018-01-10T03:57:26.566Z,5.50
2018-01-10T03:59:54.133Z,5.50
2018-01-10T04:02:21.662Z,5.50
2018-01-10T04:04:49.235Z,5.50
2018-01-10T04:07:17.545Z,5.40
2018-01-10T04:09:45.119Z,5.40
2018-01-10T04:12:12.653Z,5.40
2018-01-10T04:14:40.256Z,5.40
2018-01-10T04:17:07.892Z,5.40
2018-01-10T04:19:35.467Z,5.30
2018-01-10T04:22:02.994Z,5.30
2018-01-10T04:24:30.569Z,5.30
2018-01-10T04:26:58.109Z,5.30
2018-01-10T04:29:25.688Z,5.20
2018-01-10T04:31:53.230Z,5.20
2018-01-10T04:34:20.799Z,5.20
2018-01-10T04:36:48.328Z,5.20
2018-01-10T04:39:16.664Z,5.20
2018-01-10T04:41:44.205Z,5.10
2018-01-10T04:44:11.780Z,5.20
2018-01-10T04:46:39.315Z,5.10
2018-01-10T04:49:06.882Z,5.10
2018-01-10T04:51:34.417Z,5.10
2018-01-10T04:54:01.986Z,5.10
2018-01-10T04:56:30.283Z,5.00
2018-01-10T04:58:57.850Z,5.00
2018-01-10T05:01:25.384Z,5.00
2018-01-10T05:03:52.964Z,5.00
2018-01-10T05:06:20.496Z,5.00
2018-01-10T05:08:48.028Z,5.00
2018-01-10T05:11:16.364Z,5.00
2018-01-10T05:13:43.898Z,5.00
2018-01-10T05:16:11.482Z,5.00
2018-01-10T05:18:39.013Z,4.90
2018-01-10T05:21:06.592Z,4.90
2018-01-10T05:23:34.124Z,4.90
2018-01-10T05:26:01.707Z,4.90
2018-01-10T05:28:29.272Z,4.90
2018-01-10T05:30:56.848Z,4.90
2018-01-10T05:33:24.380Z,4.90
2018-01-10T05:35:51.957Z,4.90
2018-01-10T05:38:19.492Z,4.90
2018-01-10T05:40:47.061Z,4.80
2018-01-10T05:43:14.596Z,4.80
2018-01-10T05:45:42.937Z,4.80
2018-01-10T05:48:10.467Z,4.80
2018-01-10T05:50:38.044Z,4.80
2018-01-10T05:53:05.567Z,4.70
2018-01-10T05:55:33.151Z,4.70
2018-01-10T05:58:00.689Z,4.70
2018-01-10T06:00:28.271Z,4.70
2018-01-10T06:02:55.804Z,4.70
2018-01-10T06:05:23.383Z,4.60
2018-01-10T06:07:50.921Z,4.60
2018-01-10T06:10:18.487Z,4.60
2018-01-10T06:12:46.016Z,4.60
2018-01-10T06:15:14.368Z,4.60
2018-01-10T06:17:41.904Z,4.60
2018-01-10T06:20:09.476Z,4.50
2018-01-10T06:22:37.006Z,4.60
2018-01-10T06:25:04.584Z,4.50
2018-01-10T06:27:32.122Z,4.50
2018-01-10T06:29:59.696Z,4.50
2018-01-10T06:32:27.227Z,4.50
2018-01-10T06:34:54.798Z,4.50
2018-01-10T06:37:22.332Z,4.50
2018-01-10T06:39:50.668Z,4.40
2018-01-10T06:42:18.212Z,4.40
2018-01-10T06:44:45.780Z,4.40
2018-01-10T06:47:13.311Z,4.40
2018-01-10T06:49:40.891Z,4.40
2018-01-10T06:52:08.416Z,4.50
2018-01-10T06:54:36.765Z,4.40
2018-01-10T06:57:04.303Z,4.40
2018-01-10T06:59:31.888Z,4.40
2018-01-10T07:01:59.430Z,4.40
2018-01-10T07:04:27.004Z,4.40
2018-01-10T07:06:54.629Z,4.40
2018-01-10T07:09:22.204Z,4.40
2018-01-10T07:11:49.744Z,4.30
2018-01-10T07:14:17.321Z,4.30
2018-01-10T07:16:44.851Z,4.30
2018-01-10T07:19:12.421Z,4.30
2018-01-10T07:21:39.961Z,4.30
2018-01-10T07:24:08.301Z,4.20
2018-01-10T07:26:35.836Z,4.20
2018-01-10T07:29:03.410Z,4.20
2018-01-10T07:31:30.946Z,4.20
2018-01-10T07:33:58.518Z,4.20
2018-01-10T07:36:26.047Z,4.20
2018-01-10T07:38:53.619Z,4.20
2018-01-10T07:41:21.148Z,4.20
2018-01-10T07:43:49.485Z,4.10
2018-01-10T07:46:17.020Z,4.10
2018-01-10T07:48:44.591Z,4.10
2018-01-10T07:51:12.120Z,4.20
2018-01-10T07:53:39.692Z,4.20
2018-01-10T07:56:07.224Z,4.20
2018-01-10T07:58:35.569Z,4.20
2018-01-10T08:01:03.154Z,4.20
2018-01-10T08:03:31.465Z,4.20
2018-01-10T08:05:58.999Z,4.20
2018-01-10T08:08:27.352Z,4.20
2018-01-10T08:10:54.892Z,4.20
2018-01-10T08:13:22.472Z,4.10
2018-01-10T08:15:50.009Z,4.10
2018-01-10T08:18:17.588Z,4.10
2018-01-10T08:20:45.124Z,3.90
2018-01-10T08:23:12.693Z,3.60
2018-01-10T08:25:40.228Z,3.60
2018-01-10T08:28:07.807Z,3.70
2018-01-10T08:30:35.340Z,3.80
2018-01-10T08:33:02.907Z,3.90
2018-01-10T08:35:30.449Z,3.90
2018-01-10T08:37:58.028Z,3.90
2018-01-10T08:40:25.556Z,4.00
2018-01-10T08:42:53.144Z,4.00
2018-01-10T08:45:20.682Z,4.00
2018-01-10T08:47:48.261Z,4.00
2018-01-10T08:50:15.786Z,4.00
2018-01-10T08:52:44.126Z,4.00
2018-01-10T08:55:11.660Z,4.00
2018-01-10T08:57:39.244Z,4.00
2018-01-10T09:00:06.780Z,4.00
2018-01-10T09:02:34.362Z,4.00
2018-01-10T09:05:01.901Z,4.10
2018-01-10T09:07:29.473Z,4.10
2018-01-10T09:09:57.007Z,4.10
2018-01-10T09:12:24.586Z,4.00
2018-01-10T09:14:52.134Z,4.10
2018-01-10T09:17:19.717Z,4.10
2018-01-10T09:19:47.259Z,4.10
2018-01-10T09:22:14.840Z,4.10
2018-01-10T09:24:42.380Z,4.10
2018-01-10T09:27:09.959Z,4.10
2018-01-10T09:29:37.496Z,4.10
2018-01-10T09:32:05.077Z,4.10
2018-01-10T09:34:32.612Z,4.20
2018-01-10T09:37:00.188Z,4.20
2018-01-10T09:39:27.720Z,4.20
2018-01-10T09:41:55.295Z,4.20
2018-01-10T09:44:22.866Z,4.20
2018-01-10T09:46:50.400Z,4.30
2018-01-10T09:49:17.977Z,4.50
2018-01-10T09:51:45.514Z,4.60
2018-01-10T09:54:13.100Z,4.60
2018-01-10T09:56:40.638Z,4.60
2018-01-10T09:59:08.184Z,4.70
2018-01-10T10:01:35.760Z,4.70
2018-01-10T10:04:03.291Z,4.70
2018-01-10T10:06:31.634Z,4.70
2018-01-10T10:08:59.180Z,4.70
2018-01-10T10:11:26.762Z,4.70
2018-01-10T10:13:54.309Z,4.80
2018-01-10T10:16:21.873Z,4.80
2018-01-10T10:18:49.429Z,4.80
2018-01-10T10:21:17.013Z,4.90
2018-01-10T10:23:44.548Z,5.10
2018-01-10T10:26:12.120Z,5.20
2018-01-10T10:28:39.680Z,5.40
2018-01-10T10:31:07.218Z,5.60
2018-01-10T10:33:34.800Z,5.80
2018-01-10T10:36:02.375Z,6.10
2018-01-10T10:38:30.684Z,6.40
2018-01-10T10:40:58.263Z,6.50
2018-01-10T10:43:25.883Z,6.70
2018-01-10T10:45:53.396Z,6.90
2018-01-10T10:48:20.974Z,7.00
2018-01-10T10:50:48.516Z,7.00
2018-01-10T10:53:16.063Z,7.10
2018-01-10T10:55:43.651Z,7.10
2018-01-10T10:58:11.195Z,7.10
2018-01-10T11:00:38.740Z,7.10
2018-01-10T11:03:06.316Z,7.20
2018-01-10T11:05:33.860Z,7.30
2018-01-10T11:08:01.450Z,7.40
2018-01-10T11:10:28.992Z,7.50
2018-01-10T11:12:56.572Z,7.70
2018-01-10T11:15:24.312Z,7.90
2018-01-10T11:17:51.846Z,8.20
2018-01-10T11:20:19.388Z,8.40
2018-01-10T11:22:47.800Z,8.80
2018-01-10T11:25:15.366Z,8.80
2018-01-10T11:27:42.958Z,9.00
2018-01-10T11:30:10.496Z,9.10
2018-01-10T11:32:38.026Z,9.20
2018-01-10T11:35:05.600Z,9.30
2018-01-10T11:37:33.136Z,9.40
2018-01-10T11:40:00.730Z,9.40
2018-01-10T11:42:28.308Z,9.40
2018-01-10T11:44:55.849Z,9.40
2018-01-10T11:47:23.424Z,9.50
2018-01-10T11:49:50.965Z,9.60
2018-01-10T11:52:18.555Z,9.60
2018-01-10T11:54:46.188Z,9.60
2018-01-10T11:57:13.732Z,9.50
2018-01-10T11:59:41.293Z,9.60
2018-01-10T12:02:08.830Z,9.70
2018-01-10T12:04:36.401Z,9.80
2018-01-10T12:07:03.990Z,9.90
2018-01-10T12:09:31.541Z,9.80
2018-01-10T12:11:59.126Z,9.80
2018-01-10T12:14:26.659Z,9.80
2018-01-10T12:16:54.198Z,9.90
2018-01-10T12:19:21.780Z,10.00
2018-01-10T12:21:49.357Z,10.10
2018-01-10T12:24:16.935Z,10.10
2018-01-10T12:26:44.476Z,10.10
2018-01-10T12:29:12.064Z,9.90
2018-01-10T12:31:40.377Z,10.00
2018-01-10T12:34:07.916Z,10.00
2018-01-10T12:36:36.246Z,9.70
2018-01-10T12:39:03.823Z,9.70
2018-01-10T12:41:31.367Z,9.40
2018-01-10T12:43:58.946Z,9.10
2018-01-10T12:46:26.514Z,8.80
2018-01-10T12:48:54.068Z,8.50
2018-01-10T12:51:21.643Z,8.20
2018-01-10T12:53:49.983Z,7.60
2018-01-10T12:56:17.515Z,7.60
2018-01-10T12:58:45.080Z,7.50
2018-01-10T13:01:12.654Z,7.30
2018-01-10T13:03:40.190Z,7.20
2018-01-10T13:06:07.764Z,7.10
2018-01-10T13:08:35.312Z,7.10
2018-01-10T13:11:02.912Z,7.00
2018-01-10T13:13:30.471Z,7.00
2018-01-10T13:15:58.007Z,6.90
2018-01-10T13:18:25.579Z,6.90
2018-01-10T13:20:53.128Z,6.90
2018-01-10T13:23:20.683Z,6.90
2018-01-10T13:25:48.270Z,6.90
2018-01-10T13:28:15.865Z,6.80
2018-01-10T13:30:44.178Z,6.80
2018-01-10T13:33:11.756Z,6.80
2018-01-10T13:35:39.287Z,6.80
2018-01-10T13:38:06.878Z,6.80
2018-01-10T13:40:34.420Z,6.70
2018-01-10T13:43:01.957Z,6.80
2018-01-10T13:45:31.195Z,6.70
2018-01-10T13:47:58.765Z,6.70
2018-01-10T13:50:26.299Z,6.70
2018-01-10T13:52:53.876Z,6.70
2018-01-10T13:55:21.419Z,6.70
2018-01-10T13:57:48.976Z,6.70
2018-01-10T14:00:16.553Z,6.70
2018-01-10T14:02:44.131Z,6.70
2018-01-10T14:05:11.667Z,6.70
2018-01-10T14:07:39.214Z,6.70
2018-01-10T14:10:06.800Z,6.70
2018-01-10T14:12:34.346Z,6.60
2018-01-10T14:15:01.896Z,6.60
2018-01-10T14:17:29.483Z,6.60
2018-01-10T14:19:57.030Z,6.60
2018-01-10T14:22:24.569Z,6.60
2018-01-10T14:24:52.140Z,6.60
2018-01-10T14:27:19.680Z,6.60
2018-01-10T14:29:47.264Z,6.60
2018-01-10T14:32:14.801Z,6.60
2018-01-10T14:34:42.370Z,6.50
2018-01-10T14:37:09.947Z,6.50
2018-01-10T14:39:37.492Z,6.50
2018-01-10T14:42:05.074Z,6.50
2018-01-10T14:44:32.619Z,6.50
2018-01-10T14:47:00.156Z,6.50
2018-01-10T14:49:27.815Z,6.40
2018-01-10T14:51:55.381Z,6.40
2018-01-10T14:54:22.965Z,6.40
2018-01-10T14:56:50.513Z,6.40
2018-01-10T14:59:18.091Z,6.40
2018-01-10T15:01:45.636Z,6.40
2018-01-10T15:04:13.235Z,6.30
2018-01-10T15:06:40.779Z,6.30
2018-01-10T15:09:08.321Z,6.30
2018-01-10T15:11:35.906Z,6.30
2018-01-10T15:14:03.440Z,7.30
2018-01-10T15:16:30.999Z,8.70
2018-01-10T15:18:58.584Z,9.80
2018-01-10T15:21:27.155Z,11.00
2018-01-10T15:23:54.746Z,11.00
2018-01-10T15:26:22.280Z,11.40
2018-01-10T15:28:49.820Z,11.70
2018-01-10T15:31:17.390Z,12.00
2018-01-10T15:33:45.037Z,12.10
2018-01-10T15:36:12.575Z,12.20
2018-01-10T15:38:40.161Z,12.20
2018-01-10T15:41:07.819Z,12.30
2018-01-10T15:43:36.150Z,12.50
2018-01-10T15:46:04.491Z,12.50
2018-01-10T15:48:32.039Z,12.50
2018-01-10T15:50:59.632Z,12.50
2018-01-10T15:53:27.178Z,12.50
2018-01-10T15:55:54.760Z,12.50
2018-01-10T15:58:22.308Z,12.50
2018-01-10T16:00:49.902Z,12.40
2018-01-10T16:03:18.221Z,12.30
2018-01-10T16:05:45.765Z,12.30
2018-01-10T16:08:13.353Z,12.30
2018-01-10T16:10:40.900Z,12.30
2018-01-10T16:13:08.475Z,12.30
2018-01-10T16:15:36.020Z,12.20
2018-01-10T16:18:03.604Z,12.20
2018-01-10T16:20:31.181Z,12.20
2018-01-10T16:22:58.768Z,12.10
2018-01-10T16:25:26.307Z,12.10
2018-01-10T16:27:54.616Z,12.00
2018-01-10T16:30:22.198Z,12.00
2018-01-10T16:32:49.755Z,11.90
2018-01-10T16:35:17.333Z,11.90
2018-01-10T16:37:44.907Z,11.80
2018-01-10T16:40:12.493Z,11.80
2018-01-10T16:42:40.842Z,11.70
2018-01-10T16:45:08.427Z,11.70
2018-01-10T16:47:36.736Z,11.70
2018-01-10T16:50:04.304Z,11.60
2018-01-10T16:52:31.843Z,11.70
2018-01-10T16:54:59.438Z,11.60
2018-01-10T16:57:26.985Z,11.50
2018-01-10T16:59:54.539Z,11.50
2018-01-10T17:02:22.332Z,11.50
2018-01-10T17:04:49.873Z,11.40
2018-01-10T17:07:17.417Z,11.40
2018-01-10T17:09:45.001Z,11.30
2018-01-10T17:12:12.551Z,11.30
2018-01-10T17:14:40.124Z,11.20
2018-01-10T17:17:07.668Z,11.20
2018-01-10T17:19:35.257Z,11.10
2018-01-10T17:22:02.798Z,11.10
2018-01-10T17:24:30.348Z,11.10
2018-01-10T17:26:57.933Z,11.10
2018-01-10T17:29:25.485Z,11.00
2018-01-10T17:31:53.080Z,10.90
2018-01-10T17:34:20.656Z,10.90
2018-01-10T17:36:49.020Z,10.80
2018-01-10T17:39:17.355Z,10.80
2018-01-10T17:41:44.938Z,10.80
2018-01-10T17:44:12.532Z,10.70
2018-01-10T17:46:40.870Z,10.70
2018-01-10T17:49:08.414Z,10.60
2018-01-10T17:51:35.993Z,10.60
2018-01-10T17:54:03.532Z,10.50
2018-01-10T17:56:31.111Z,10.50
2018-01-10T17:58:58.688Z,10.40
2018-01-10T18:01:26.259Z,10.40
2018-01-10T18:03:54.604Z,10.40
2018-01-10T18:06:22.144Z,10.30
2018-01-10T18:08:49.723Z,10.30
2018-01-10T18:11:17.292Z,10.30
2018-01-10T18:13:44.835Z,10.20
2018-01-10T18:16:12.414Z,10.20
2018-01-10T18:18:39.961Z,10.20
2018-01-10T18:21:07.535Z,10.10
2018-01-10T18:23:35.276Z,10.10
2018-01-10T18:26:02.817Z,10.00
2018-01-10T18:28:30.393Z,10.00
2018-01-10T18:30:57.962Z,10.00
2018-01-10T18:33:25.539Z,9.90
2018-01-10T18:35:53.090Z,9.90
2018-01-10T18:38:20.661Z,9.90
2018-01-10T18:40:48.201Z,9.90
2018-01-10T18:43:15.801Z,9.80
2018-01-10T18:45:44.141Z,9.70
2018-01-10T18:48:11.720Z,9.70
2018-01-10T18:50:39.295Z,9.70
2018-01-10T18:53:06.827Z,9.70
2018-01-10T18:55:34.407Z,9.60
2018-01-10T18:58:01.947Z,9.60
2018-01-10T19:00:29.521Z,9.60
2018-01-10T19:02:57.062Z,9.50
2018-01-10T19:05:24.806Z,9.50
2018-01-10T19:07:52.360Z,9.50
2018-01-10T19:10:19.896Z,9.40
2018-01-10T19:12:47.587Z,9.40
2018-01-10T19:15:15.123Z,9.40
2018-01-10T19:17:42.691Z,9.40
2018-01-10T19:20:10.237Z,9.30
2018-01-10T19:22:38.599Z,9.30
2018-01-10T19:25:06.913Z,9.20
2018-01-10T19:27:34.496Z,9.20
2018-01-10T19:30:02.068Z,9.20
2018-01-10T19:32:29.656Z,9.20
2018-01-10T19:34:57.960Z,9.10
2018-01-10T19:37:25.509Z,9.10
2018-01-10T19:39:53.855Z,9.00
2018-01-10T19:42:21.396Z,9.00
2018-01-10T19:44:49.109Z,9.00
2018-01-10T19:47:17.420Z,9.00
2018-01-10T19:49:44.960Z,8.90
2018-01-10T19:52:12.541Z,8.90
2018-01-10T19:54:40.120Z,8.90
2018-01-10T19:57:07.652Z,8.90
2018-01-10T19:59:35.244Z,8.90
2018-01-10T20:02:02.819Z,8.80
2018-01-10T20:04:30.412Z,8.80
2018-01-10T20:06:57.994Z,8.70
2018-01-10T20:09:25.546Z,8.70
2018-01-10T20:11:53.133Z,8.70
2018-01-10T20:14:20.727Z,8.70
2018-01-10T20:16:49.089Z,8.60
2018-01-10T20:19:16.631Z,8.60
2018-01-10T20:21:44.189Z,8.60
2018-01-10T20:24:11.776Z,8.60
2018-01-10T20:26:39.349Z,8.50
2018-01-10T20:29:07.707Z,8.50
2018-01-10T20:31:35.243Z,8.50
2018-01-10T20:34:02.793Z,8.50
2018-01-10T20:36:30.377Z,8.50
2018-01-10T20:38:57.920Z,8.50
2018-01-10T20:41:25.493Z,8.40
2018-01-10T20:43:53.032Z,8.40
2018-01-10T20:46:20.617Z,8.30
2018-01-10T20:48:48.208Z,8.30
2018-01-10T20:51:16.527Z,8.30
2018-01-10T20:53:44.066Z,8.30
2018-01-10T20:56:12.453Z,8.20
2018-01-10T20:58:39.988Z,8.20
2018-01-10T21:01:08.335Z,8.20
2018-01-10T21:03:35.880Z,8.20
2018-01-10T21:06:03.458Z,8.20
2018-01-10T21:08:31.006Z,8.20
2018-01-10T21:10:58.582Z,8.10
2018-01-10T21:13:26.120Z,8.10
2018-01-10T21:15:53.691Z,8.10
2018-01-10T21:18:21.227Z,8.10
2018-01-10T21:20:48.808Z,8.10
2018-01-10T21:23:16.394Z,8.10
2018-01-10T21:25:44.705Z,8.00
2018-01-10T21:28:12.291Z,8.00
2018-01-10T21:30:39.823Z,8.00
2018-01-10T21:33:07.414Z,8.00
2018-01-10T21:35:35.019Z,7.90
2018-01-10T21:38:03.332Z,7.90
2018-01-10T21:40:30.863Z,7.90
2018-01-10T21:42:59.220Z,7.90
2018-01-10T21:45:26.755Z,7.90
2018-01-10T21:47:54.352Z,7.80
2018-01-10T21:50:22.699Z,7.80
2018-01-10T21:52:50.272Z,7.80
2018-01-10T21:55:17.811Z,7.80
2018-01-10T21:57:45.396Z,7.80
2018-01-10T22:00:12.946Z,7.70
2018-01-10T22:02:40.536Z,7.70
2018-01-10T22:05:08.844Z,7.60
2018-01-10T22:07:36.437Z,7.60
2018-01-10T22:10:04.000Z,7.70
2018-01-10T22:12:31.548Z,7.70
2018-01-10T22:14:59.144Z,7.60
2018-01-10T22:17:26.688Z,7.60
2018-01-10T22:19:54.245Z,7.50
2018-01-10T22:22:21.833Z,7.60
2018-01-10T22:24:50.174Z,7.50
2018-01-10T22:27:17.726Z,7.50
2018-01-10T22:29:45.304Z,7.50
2018-01-10T22:32:12.894Z,7.50
2018-01-10T22:34:41.209Z,7.40
2018-01-10T22:37:08.768Z,7.40
2018-01-10T22:39:36.345Z,7.40
2018-01-10T22:42:03.880Z,7.40
2018-01-10T22:44:31.456Z,7.30
2018-01-10T22:46:59.004Z,7.40
2018-01-10T22:49:26.581Z,7.40
2018-01-10T22:51:54.164Z,7.30
2018-01-10T22:54:21.708Z,7.30
2018-01-10T22:56:49.282Z,7.30
2018-01-10T22:59:16.822Z,7.30
2018-01-10T23:01:44.412Z,7.20
2018-01-10T23:04:12.004Z,7.20
2018-01-10T23:06:39.552Z,7.20
2018-01-10T23:09:07.871Z,7.20
2018-01-10T23:11:35.452Z,7.20
2018-01-10T23:14:02.990Z,7.10
2018-01-10T23:16:30.532Z,7.20
2018-01-10T23:18:58.107Z,7.20
2018-01-10T23:21:25.678Z,7.10
2018-01-10T23:23:53.275Z,7.10
2018-01-10T23:26:21.602Z,7.10
2018-01-10T23:28:49.147Z,7.10
2018-01-10T23:31:16.728Z,7.10
2018-01-10T23:33:44.305Z,7.10
2018-01-10T23:36:11.852Z,7.00
2018-01-10T23:38:39.442Z,7.00
2018-01-10T23:41:06.989Z,7.00
2018-01-10T23:43:34.578Z,7.00
2018-01-10T23:46:02.893Z,7.00
2018-01-10T23:48:30.440Z,6.90
2018-01-10T23:50:58.020Z,6.90
2018-01-10T23:53:25.566Z,6.90
2018-01-10T23:55:53.151Z,6.90
2018-01-10T23:58:20.694Z,6.90
